Time;durP1;ratioP1;P1;durP2;ratioP2;P2;SDS_P1;SDS_P2;PMS_P1;PMS_P2;Temp;Humidity;BMP_temperature;BMP_pressure;BME280_temperature;BME280_humidity;BME280_pressure;Samples;Min_cycle;Max_cycle;Signal;HPM_P1;HPM_P2
2020/12/24 00:00:14;;;;;;;0.70;0.60;;;9.70;99.90;;;9.80;100.00;-20948.72;5016943;28;20440;-70
2020/12/24 00:02:41;;;;;;;0.60;0.50;;;9.70;99.90;;;9.78;100.00;-20948.16;5012040;28;20540;-70
2020/12/24 00:05:11;;;;;;;0.70;0.60;;;9.60;99.90;;;9.88;100.00;-20951.06;4997901;28;20509;-71
2020/12/24 00:07:39;;;;;;;0.70;0.60;;;9.70;99.90;;;9.81;100.00;-20949.00;5012469;28;20786;-71
2020/12/24 00:10:06;;;;;;;0.70;0.60;;;9.70;99.90;;;9.90;100.00;-20951.63;5017477;28;20519;-71
2020/12/24 00:12:33;;;;;;;0.60;0.50;;;9.60;99.90;;;9.98;100.00;-20953.72;5011307;28;20531;-71
2020/12/24 00:15:00;;;;;;;0.60;0.60;;;9.70;99.90;;;9.80;100.00;-20948.72;5010769;28;20458;-70
2020/12/24 00:17:27;;;;;;;0.60;0.60;;;9.60;99.90;;;9.57;100.00;-20942.63;5008992;28;20452;-71
2020/12/24 00:19:54;;;;;;;0.60;0.60;;;9.50;99.90;;;9.79;100.00;-20948.59;4997733;28;20506;-70
2020/12/24 00:22:21;;;;;;;0.60;0.60;;;9.70;99.90;;;9.70;100.00;-20945.94;4997403;28;20880;-70
2020/12/24 00:24:49;;;;;;;0.70;0.60;;;9.60;99.90;;;9.60;100.00;-20943.47;5014356;28;20540;-70
2020/12/24 00:27:16;;;;;;;0.70;0.60;;;9.50;99.90;;;9.70;100.00;-20945.94;5011044;28;20421;-71
2020/12/24 00:29:43;;;;;;;0.70;0.60;;;9.60;99.90;;;9.71;100.00;-20946.38;5017081;28;20453;-71
2020/12/24 00:32:10;;;;;;;0.67;0.57;;;9.60;99.90;;;9.73;100.00;-20946.91;5017152;28;20454;-70
2020/12/24 00:34:38;;;;;;;0.63;0.60;;;9.60;99.90;;;9.80;100.00;-20948.84;5017056;28;20454;-71
2020/12/24 00:37:04;;;;;;;0.60;0.60;;;9.60;99.90;;;9.83;100.00;-20949.56;5016166;28;20445;-71
2020/12/24 00:39:31;;;;;;;0.70;0.67;;;9.60;99.90;;;9.79;100.00;-20948.44;5016354;28;20462;-71
2020/12/24 00:41:59;;;;;;;0.60;0.60;;;9.60;99.90;;;9.67;100.00;-20945.41;5016662;28;20843;-71
2020/12/24 00:44:26;;;;;;;0.70;0.60;;;9.50;99.90;;;9.78;100.00;-20948.16;5015503;28;20515;-71
2020/12/24 00:46:53;;;;;;;0.70;0.60;;;9.60;99.90;;;9.71;100.00;-20946.38;5015782;28;20445;-71
2020/12/24 00:49:20;;;;;;;0.70;0.60;;;9.60;99.90;;;9.74;100.00;-20947.19;5015146;28;20796;-71
2020/12/24 00:51:47;;;;;;;0.70;0.60;;;9.60;99.90;;;9.89;100.00;-20951.34;5014302;28;20465;-71
2020/12/24 00:54:17;;;;;;;0.70;0.60;;;9.60;99.90;;;9.92;100.00;-20952.19;5031555;28;20857;-70
2020/12/24 00:56:46;;;;;;;0.70;0.70;;;9.70;99.90;;;9.93;100.00;-20952.31;5030078;28;20433;-71
2020/12/24 00:59:18;;;;;;;0.70;0.60;;;9.80;99.90;;;9.94;100.00;-20952.59;4997845;28;20443;-71
2020/12/24 01:01:47;;;;;;;0.70;0.70;;;9.70;99.90;;;9.91;100.00;-20951.78;5013425;28;20434;-71
2020/12/24 01:04:22;;;;;;;0.70;0.60;;;9.70;99.90;;;9.64;100.00;-20944.56;5016504;28;20538;-71
2020/12/24 01:06:53;;;;;;;0.70;0.60;;;9.50;99.90;;;9.62;100.00;-20944.00;5015886;28;20536;-71
2020/12/24 01:09:22;;;;;;;0.70;0.60;;;9.50;99.90;;;9.60;100.00;-20943.47;5014866;28;20905;-71
2020/12/24 01:11:53;;;;;;;0.67;0.53;;;9.40;99.90;;;9.58;100.00;-20942.91;5014057;28;20941;-70
2020/12/24 01:14:24;;;;;;;0.70;0.63;;;9.40;99.90;;;9.62;100.00;-20944.00;5004983;28;20529;-71
2020/12/24 01:16:55;;;;;;;0.70;0.60;;;9.40;99.90;;;9.64;100.00;-20944.56;5015809;28;20509;-70
2020/12/24 01:19:26;;;;;;;0.70;0.60;;;9.40;99.90;;;9.64;100.00;-20944.44;5014774;28;20492;-71
2020/12/24 01:21:56;;;;;;;0.70;0.70;;;9.40;99.90;;;9.68;100.00;-20945.69;4996716;28;20438;-71
2020/12/24 01:24:27;;;;;;;0.67;0.60;;;9.50;99.90;;;9.67;100.00;-20945.25;4996295;28;20427;-71
2020/12/24 01:26:55;;;;;;;0.70;0.70;;;9.40;99.90;;;9.56;100.00;-20942.34;4996643;28;20419;-71
2020/12/24 01:29:25;;;;;;;0.70;0.60;;;9.40;99.90;;;9.44;100.00;-20939.16;4996397;28;20497;-71
2020/12/24 01:31:53;;;;;;;0.70;0.60;;;9.30;99.90;;;9.52;100.00;-20941.25;5013996;28;20831;-71
2020/12/24 01:34:22;;;;;;;0.70;0.60;;;9.20;99.90;;;9.63;100.00;-20944.28;5013529;28;20526;-71
2020/12/24 01:36:50;;;;;;;0.70;0.60;;;9.30;99.90;;;9.62;100.00;-20943.88;5030304;28;20437;-71
2020/12/24 01:39:21;;;;;;;0.70;0.70;;;9.40;99.90;;;9.62;100.00;-20943.88;5015408;28;20894;-70
2020/12/24 01:41:49;;;;;;;0.70;0.60;;;9.40;99.90;;;9.67;100.00;-20945.41;5016295;28;20437;-70
2020/12/24 01:44:17;;;;;;;0.70;0.60;;;9.40;99.90;;;9.53;100.00;-20941.53;5014124;28;20456;-70
2020/12/24 01:46:48;;;;;;;0.70;0.60;;;9.40;99.90;;;9.58;100.00;-20942.78;5030806;28;20779;-71
2020/12/24 01:49:21;;;;;;;0.70;0.70;;;9.40;99.90;;;9.58;100.00;-20942.91;5014364;28;20869;-71
2020/12/24 01:51:55;;;;;;;0.70;0.60;;;9.30;99.90;;;9.52;100.00;-20941.09;5015434;28;20501;-71
2020/12/24 01:54:25;;;;;;;0.70;0.60;;;9.40;99.90;;;9.40;100.00;-20937.91;5014496;28;20508;-71
2020/12/24 01:56:56;;;;;;;0.90;0.80;;;9.20;99.90;;;9.30;100.00;-20935.16;5013980;28;20510;-71
2020/12/24 01:59:27;;;;;;;0.70;0.60;;;9.20;99.90;;;9.30;100.00;-20935.16;5014346;28;20438;-71
2020/12/24 02:01:56;;;;;;;0.70;0.70;;;9.10;99.90;;;9.21;100.00;-20932.78;5015553;28;20437;-72
2020/12/24 02:04:25;;;;;;;0.70;0.60;;;9.10;99.90;;;9.11;100.00;-20930.03;5015009;28;20461;-71
2020/12/24 02:06:56;;;;;;;0.70;0.60;;;9.00;99.90;;;8.97;100.00;-20926.13;5015749;28;20440;-70
2020/12/24 02:09:23;;;;;;;0.70;0.60;;;8.90;99.90;;;9.07;100.00;-20929.06;5015007;28;20490;-71
2020/12/24 02:11:50;;;;;;;0.70;0.60;;;8.90;99.90;;;8.99;100.00;-20926.69;5013999;28;20437;-71
2020/12/24 02:14:17;;;;;;;0.70;0.50;;;8.90;99.90;;;9.00;100.00;-20927.13;5015180;28;20431;-71
2020/12/24 02:16:44;;;;;;;0.70;0.60;;;8.90;99.90;;;9.01;100.00;-20927.38;5015154;28;20419;-70
2020/12/24 02:19:12;;;;;;;0.70;0.50;;;8.80;99.90;;;9.00;100.00;-20927.13;5014108;28;20463;-70
2020/12/24 02:21:40;;;;;;;0.70;0.60;;;8.90;99.90;;;9.02;100.00;-20927.66;5012041;28;20457;-70
2020/12/24 02:24:08;;;;;;;0.70;0.60;;;8.80;99.90;;;8.87;100.00;-20923.50;4996359;28;20473;-70
2020/12/24 02:26:35;;;;;;;0.70;0.60;;;8.70;99.90;;;8.95;100.00;-20925.88;5008261;28;20502;-70
2020/12/24 02:29:02;;;;;;;0.60;0.50;;;8.90;99.90;;;9.05;100.00;-20928.50;5014349;28;20768;-72
2020/12/24 02:31:29;;;;;;;0.70;0.60;;;8.90;99.90;;;9.02;100.00;-20927.66;5014525;28;20798;-71
2020/12/24 02:33:56;;;;;;;0.70;0.60;;;8.80;99.90;;;9.00;100.00;-20926.97;5014642;28;20464;-71
2020/12/24 02:36:23;;;;;;;0.70;0.60;;;8.90;99.90;;;9.11;100.00;-20930.16;5008229;28;20858;-70
2020/12/24 02:38:51;;;;;;;0.70;0.60;;;8.90;99.90;;;9.07;100.00;-20929.06;4995004;28;20438;-70
2020/12/24 02:41:19;;;;;;;0.70;0.60;;;8.90;99.90;;;9.08;100.00;-20929.31;4994910;28;20417;-71
2020/12/24 02:43:47;;;;;;;0.70;0.53;;;8.90;99.90;;;9.12;100.00;-20930.44;4995283;28;20463;-71
2020/12/24 02:46:14;;;;;;;0.70;0.60;;;9.00;99.90;;;9.21;100.00;-20932.78;5004555;28;20444;-70
2020/12/24 02:48:41;;;;;;;0.70;0.60;;;9.00;99.90;;;9.08;100.00;-20929.31;5013920;28;20451;-71
2020/12/24 02:51:09;;;;;;;0.70;0.60;;;8.90;99.90;;;9.10;100.00;-20929.88;5012775;28;20937;-71
2020/12/24 02:53:37;;;;;;;0.70;0.60;;;8.90;99.90;;;9.24;100.00;-20933.63;5015044;28;20474;-72
2020/12/24 02:56:05;;;;;;;0.70;0.60;;;9.00;99.90;;;9.53;100.00;-20941.53;5014200;28;20411;-71
2020/12/24 02:58:32;;;;;;;0.67;0.60;;;9.10;99.90;;;9.50;100.00;-20940.69;5014318;28;20981;-70
2020/12/24 03:01:00;;;;;;;0.70;0.60;;;9.20;99.90;;;9.48;100.00;-20940.13;5010827;28;20576;-71
2020/12/24 03:03:27;;;;;;;0.70;0.60;;;9.20;99.90;;;9.52;100.00;-20941.25;4993852;28;20485;-71
2020/12/24 03:05:54;;;;;;;0.70;0.60;;;9.20;99.90;;;9.60;100.00;-20943.47;4993949;28;20454;-71
2020/12/24 03:08:21;;;;;;;0.70;0.60;;;9.20;99.90;;;9.59;100.00;-20943.19;4994498;28;20433;-71
2020/12/24 03:10:48;;;;;;;0.70;0.63;;;9.20;99.90;;;9.53;100.00;-20941.53;4994065;28;20935;-71
2020/12/24 03:13:16;;;;;;;0.70;0.60;;;9.20;99.90;;;9.61;100.00;-20943.75;5010160;28;20469;-71
2020/12/24 03:15:43;;;;;;;0.70;0.60;;;9.20;99.90;;;9.34;100.00;-20936.25;5014171;28;20421;-71
2020/12/24 03:18:10;;;;;;;0.63;0.60;;;9.10;99.90;;;9.63;100.00;-20944.16;5014626;28;20449;-71
2020/12/24 03:20:37;;;;;;;0.67;0.60;;;9.20;99.90;;;9.53;100.00;-20941.53;5012608;28;20445;-70
2020/12/24 03:23:04;;;;;;;0.70;0.53;;;9.10;99.90;;;9.50;100.00;-20940.69;5013842;28;20459;-71
2020/12/24 03:25:31;;;;;;;0.70;0.57;;;9.10;99.90;;;9.28;100.00;-20934.59;5012856;28;20432;-71
2020/12/24 03:27:58;;;;;;;0.70;0.60;;;9.00;99.90;;;9.30;100.00;-20935.16;5013642;28;20841;-70
2020/12/24 03:30:26;;;;;;;0.70;0.60;;;8.90;99.90;;;9.29;100.00;-20934.88;5005859;28;20451;-71
2020/12/24 03:32:52;;;;;;;0.60;0.60;;;8.90;99.90;;;9.19;100.00;-20932.38;4993867;28;20524;-70
2020/12/24 03:35:19;;;;;;;0.70;0.60;;;8.90;99.90;;;9.19;100.00;-20932.25;4994001;28;20433;-71
2020/12/24 03:37:47;;;;;;;0.70;0.60;;;8.90;99.90;;;9.24;100.00;-20933.47;4994130;28;20520;-70
2020/12/24 03:40:13;;;;;;;0.70;0.70;;;9.00;99.90;;;9.30;100.00;-20935.16;5008181;28;20552;-71
2020/12/24 03:42:40;;;;;;;0.70;0.70;;;9.00;99.90;;;9.31;100.00;-20935.56;5009241;28;20542;-71
2020/12/24 03:45:08;;;;;;;0.70;0.67;;;9.00;99.90;;;9.36;100.00;-20936.81;5013927;28;20438;-71
2020/12/24 03:47:36;;;;;;;0.70;0.60;;;9.00;99.90;;;9.33;100.00;-20936.13;5010555;28;20417;-71
2020/12/24 03:50:04;;;;;;;0.70;0.60;;;9.00;99.90;;;9.30;100.00;-20935.16;5013487;28;20453;-71
2020/12/24 03:52:31;;;;;;;0.70;0.50;;;9.00;99.90;;;9.39;100.00;-20937.78;5013630;28;20487;-71
2020/12/24 03:54:58;;;;;;;0.70;0.60;;;9.00;99.90;;;9.36;100.00;-20936.94;5013161;28;20421;-70
2020/12/24 03:57:25;;;;;;;0.70;0.60;;;9.00;99.90;;;9.34;100.00;-20936.25;4993510;28;20433;-71
2020/12/24 03:59:52;;;;;;;0.70;0.60;;;9.00;99.90;;;9.51;100.00;-20940.97;4994758;28;20433;-71
2020/12/24 04:02:19;;;;;;;0.70;0.60;;;9.00;99.90;;;9.32;100.00;-20935.69;5013079;28;20436;-70
2020/12/24 04:04:46;;;;;;;0.67;0.60;;;9.00;99.90;;;9.33;100.00;-20936.13;5013475;28;20452;-71
2020/12/24 04:07:13;;;;;;;0.70;0.60;;;8.90;99.90;;;9.42;100.00;-20938.47;5013527;28;20531;-71
2020/12/24 04:09:40;;;;;;;0.70;0.70;;;8.90;99.90;;;9.36;100.00;-20936.81;5012841;28;20458;-72
2020/12/24 04:12:07;;;;;;;0.70;0.60;;;8.90;99.90;;;9.28;100.00;-20934.59;5013024;28;20444;-70
2020/12/24 04:14:34;;;;;;;0.70;0.60;;;8.80;99.90;;;9.43;100.00;-20938.75;5001802;28;20481;-71
2020/12/24 04:17:02;;;;;;;0.70;0.60;;;8.90;99.90;;;9.37;100.00;-20937.09;4993040;28;20428;-71
2020/12/24 04:19:30;;;;;;;0.70;0.60;;;8.90;99.90;;;9.28;100.00;-20934.59;4993666;28;20457;-71
2020/12/24 04:21:58;;;;;;;0.70;0.60;;;8.90;99.90;;;9.40;100.00;-20938.06;4992356;28;20481;-71
2020/12/24 04:24:26;;;;;;;0.70;0.60;;;8.90;99.90;;;9.50;100.00;-20940.69;4996336;28;20700;-70
2020/12/24 04:26:56;;;;;;;0.70;0.60;;;9.00;99.90;;;9.41;100.00;-20938.19;5013257;28;20442;-71
2020/12/24 04:29:27;;;;;;;0.70;0.60;;;9.00;99.90;;;9.39;100.00;-20937.66;5013497;28;20906;-71
2020/12/24 04:31:55;;;;;;;0.70;0.60;;;8.90;99.90;;;9.19;100.00;-20932.38;5013300;28;20495;-70
2020/12/24 04:34:23;;;;;;;0.70;0.60;;;8.80;99.90;;;9.18;100.00;-20932.09;5012120;28;20452;-71
2020/12/24 04:36:51;;;;;;;0.60;0.50;;;8.80;99.90;;;9.18;100.00;-20932.09;5013092;28;20523;-71
2020/12/24 04:39:19;;;;;;;0.70;0.60;;;8.80;99.90;;;9.17;100.00;-20931.81;5012514;28;20796;-70
2020/12/24 04:41:47;;;;;;;0.70;0.60;;;8.80;99.90;;;9.12;100.00;-20930.44;5006024;28;20449;-70
2020/12/24 04:44:14;;;;;;;0.60;0.60;;;8.80;99.90;;;9.15;100.00;-20931.28;4993381;28;20949;-71
2020/12/24 04:46:43;;;;;;;0.60;0.60;;;8.80;99.90;;;9.22;100.00;-20932.94;4997497;28;20834;-71
2020/12/24 04:49:10;;;;;;;0.70;0.60;;;8.80;99.90;;;9.10;100.00;-20929.88;4997519;28;20870;-71
2020/12/24 04:51:37;;;;;;;0.70;0.60;;;8.70;99.90;;;9.00;100.00;-20927.13;4996793;28;20534;-71
2020/12/24 04:54:07;;;;;;;0.70;0.60;;;8.60;99.90;;;8.84;100.00;-20922.69;5002057;28;20988;-71
2020/12/24 04:56:36;;;;;;;0.70;0.60;;;8.50;99.90;;;8.92;100.00;-20924.91;5016385;28;20421;-71
2020/12/24 04:59:04;;;;;;;0.70;0.60;;;8.50;99.90;;;8.94;100.00;-20925.59;5016614;28;20445;-71
2020/12/24 05:01:32;;;;;;;0.70;0.60;;;8.50;99.90;;;8.87;100.00;-20923.66;5016440;28;20441;-71
2020/12/24 05:03:58;;;;;;;0.70;0.50;;;8.50;99.90;;;8.83;100.00;-20922.41;5016621;28;20566;-71
2020/12/24 05:06:26;;;;;;;0.70;0.70;;;8.40;99.90;;;8.82;100.00;-20922.13;5014967;28;20492;-71
2020/12/24 05:08:54;;;;;;;0.70;0.60;;;8.40;99.90;;;8.83;100.00;-20922.41;5014527;28;20444;-71
2020/12/24 05:11:26;;;;;;;0.70;0.60;;;8.40;99.90;;;8.83;100.00;-20922.41;5015280;28;20457;-71
2020/12/24 05:13:54;;;;;;;0.60;0.53;;;8.40;99.90;;;8.84;100.00;-20922.69;5014711;28;20536;-71
2020/12/24 05:16:21;;;;;;;0.70;0.60;;;8.40;99.90;;;8.81;100.00;-20921.97;5008217;28;20437;-71
2020/12/24 05:18:48;;;;;;;0.70;0.60;;;8.30;99.90;;;8.79;100.00;-20921.28;5016348;28;20446;-71
2020/12/24 05:21:33;;;;;;;0.60;0.60;;;8.40;99.90;;;8.88;100.00;-20923.78;4996543;28;20512;-71
2020/12/24 05:24:00;;;;;;;0.60;0.57;;;8.40;99.90;;;8.99;100.00;-20926.84;5008692;28;20799;-71
2020/12/24 05:26:30;;;;;;;0.70;0.60;;;8.50;99.90;;;8.85;100.00;-20922.94;5015660;28;20520;-71
2020/12/24 05:29:11;;;;;;;0.60;0.60;;;8.40;99.90;;;8.88;100.00;-20923.94;5015762;28;20512;-71
2020/12/24 05:31:38;;;;;;;0.67;0.60;;;8.40;99.90;;;8.88;100.00;-20923.94;5015695;28;20429;-72
2020/12/24 05:34:05;;;;;;;0.70;0.60;;;8.40;99.90;;;8.84;100.00;-20922.69;5008321;28;20491;-71
2020/12/24 05:36:32;;;;;;;0.70;0.60;;;8.40;99.90;;;8.85;100.00;-20922.94;5000728;28;20456;-71
2020/12/24 05:38:59;;;;;;;0.60;0.60;;;8.40;99.90;;;8.83;100.00;-20922.41;5015796;28;20441;-70
2020/12/24 05:41:28;;;;;;;0.70;0.60;;;8.30;99.90;;;8.74;100.00;-20919.91;5013515;28;20447;-70
2020/12/24 05:43:56;;;;;;;0.60;0.50;;;8.30;99.90;;;8.76;100.00;-20920.47;5009787;28;21037;-71
2020/12/24 05:46:27;;;;;;;0.70;0.60;;;8.30;99.90;;;8.77;100.00;-20920.75;5015297;28;20476;-71
2020/12/24 05:48:54;;;;;;;0.70;0.60;;;8.30;99.90;;;8.73;100.00;-20919.75;5006285;28;20458;-71
2020/12/24 05:51:22;;;;;;;0.60;0.60;;;8.30;99.90;;;8.80;100.00;-20792.34;5007709;28;20541;-70
2020/12/24 05:53:49;;;;;;;0.60;0.50;;;8.30;99.90;;;8.81;100.00;-20760.16;5012688;28;20428;-71
2020/12/24 05:56:20;;;;;;;0.70;0.60;;;8.30;99.90;;;8.82;100.00;-20700.47;5006742;28;20435;-70
2020/12/24 05:58:49;;;;;;;0.93;0.93;;;8.30;99.90;;;8.73;100.00;-20470.78;5012794;28;20873;-70
2020/12/24 06:01:17;;;;;;;0.60;0.50;;;8.20;99.90;;;8.65;100.00;-19936.97;5014970;28;20485;-70
2020/12/24 06:04:02;;;;;;;0.70;0.60;;;8.20;99.90;;;8.49;100.00;-18923.97;5015236;28;20627;-70
2020/12/24 06:06:47;;;;;;;0.60;0.60;;;8.10;99.90;;;8.43;100.00;-17271.38;5015273;28;20449;-70
2020/12/24 06:09:19;;;;;;;0.60;0.53;;;8.10;99.90;;;8.39;100.00;-15623.63;5014913;28;20430;-70
2020/12/24 06:11:49;;;;;;;0.60;0.60;;;8.00;99.90;;;8.31;100.00;-14292.19;5012177;28;20902;-70
2020/12/24 06:14:32;;;;;;;0.60;0.50;;;8.00;99.90;;;8.33;100.00;-12952.09;5015445;28;20421;-70
2020/12/24 06:17:07;;;;;;;0.60;0.53;;;8.00;99.90;;;8.21;100.00;-12139.91;5030220;28;20965;-70
2020/12/24 06:19:39;;;;;;;0.60;0.50;;;8.00;99.90;;;8.24;100.00;-11725.06;5015238;28;20476;-70
2020/12/24 06:22:14;;;;;;;0.60;0.57;;;8.00;99.90;;;8.34;100.00;-11958.91;5014526;28;20422;-70
2020/12/24 06:24:44;;;;;;;0.70;0.60;;;8.10;99.90;;;8.31;100.00;-12216.31;5015035;28;20551;-70
2020/12/24 06:27:26;;;;;;;0.70;0.60;;;8.10;99.90;;;8.57;100.00;-12374.94;5015132;28;20474;-70
2020/12/24 06:30:02;;;;;;;0.60;0.60;;;8.20;99.90;;;8.50;100.00;-13462.44;5015430;28;20418;-70
2020/12/24 06:32:33;;;;;;;0.70;0.60;;;8.20;99.90;;;8.36;100.00;-13903.00;4995877;28;20458;-70
2020/12/24 06:35:01;;;;;;;0.60;0.60;;;8.20;99.90;;;8.42;100.00;-13796.44;4995275;28;20448;-71
2020/12/24 06:37:37;;;;;;;0.70;0.60;;;8.20;99.90;;;8.50;100.00;-14275.31;4995152;28;20849;-71
2020/12/24 06:40:05;;;;;;;0.60;0.60;;;8.20;99.90;;;8.47;100.00;-14359.94;4993550;28;20457;-71
2020/12/24 06:42:45;;;;;;;0.70;0.70;;;8.20;99.90;;;8.54;100.00;-14863.81;5004638;28;20768;-71
2020/12/24 06:45:30;;;;;;;0.60;0.60;;;8.20;99.90;;;8.63;100.00;-14452.69;5014744;28;20936;-71
2020/12/24 06:48:22;;;;;;;0.63;0.63;;;8.20;99.90;;;8.53;100.00;-15323.75;5014146;28;20451;-70
2020/12/24 06:50:51;;;;;;;0.70;0.60;;;8.30;99.90;;;8.67;100.00;-15583.97;5001191;28;20428;-71
2020/12/24 06:53:29;;;;;;;0.60;0.60;;;8.30;99.90;;;8.76;100.00;-16310.75;5014095;28;20449;-71
2020/12/24 06:56:27;;;;;;;0.60;0.50;;;8.30;99.90;;;8.66;100.00;-17218.78;5013862;28;20514;-70
2020/12/24 06:59:00;;;;;;;0.60;0.60;;;8.30;99.90;;;8.59;100.00;-17154.78;5014773;28;20816;-71
2020/12/24 07:01:30;;;;;;;0.60;0.53;;;8.30;99.90;;;8.55;100.00;-17746.25;5014277;28;20435;-71
2020/12/24 07:03:59;;;;;;;0.60;0.50;;;8.30;99.90;;;8.64;100.00;-17723.31;5013243;28;20479;-71
2020/12/24 07:06:52;;;;;;;0.60;0.53;;;8.30;99.90;;;8.64;100.00;-18030.56;5007231;28;20897;-71
2020/12/24 07:09:45;;;;;;;0.60;0.60;;;8.30;99.90;;;8.46;100.00;-18653.50;5028973;28;20431;-71
2020/12/24 07:12:35;;;;;;;0.60;0.60;;;8.30;99.90;;;8.57;100.00;-18596.19;5014015;28;20512;-71
2020/12/24 07:15:21;;;;;;;0.60;0.60;;;8.30;99.90;;;8.52;100.00;-18814.78;5014497;28;20415;-71
2020/12/24 07:17:55;;;;;;;0.60;0.60;;;8.20;99.90;;;8.51;100.00;-18814.56;5014436;28;20440;-72
2020/12/24 07:20:24;;;;;;;0.60;0.60;;;8.20;99.90;;;8.46;100.00;-18468.66;5014157;28;20451;-72
2020/12/24 07:22:55;;;;;;;0.70;0.60;;;8.10;99.90;;;8.53;100.00;-18939.91;5011277;28;20511;-72
2020/12/24 07:25:24;;;;;;;0.60;0.57;;;8.30;99.90;;;8.75;100.00;-19294.84;5004805;28;20940;-71
2020/12/24 07:27:52;;;;;;;0.70;0.60;;;8.30;99.90;;;8.53;100.00;-19786.53;4997011;28;20444;-71
2020/12/24 07:30:21;;;;;;;0.70;0.60;;;8.30;99.90;;;8.64;100.00;-19809.34;5003806;28;20522;-71
2020/12/24 07:32:54;;;;;;;0.60;0.60;;;8.30;99.90;;;8.57;100.00;-19814.91;5006471;28;20988;-69
2020/12/24 07:35:21;;;;;;;0.60;0.60;;;8.30;99.90;;;8.55;100.00;-20059.22;5013167;28;20472;-72
2020/12/24 07:37:54;;;;;;;0.60;0.60;;;8.30;99.90;;;8.67;100.00;-20336.94;5013424;28;20441;-71
2020/12/24 07:40:31;;;;;;;0.60;0.60;;;8.30;99.90;;;8.57;100.00;-20591.56;5012265;28;20446;-69
2020/12/24 07:43:08;;;;;;;0.60;0.50;;;8.30;99.90;;;8.52;100.00;-20892.25;5005707;28;20494;-71
2020/12/24 07:45:35;;;;;;;0.60;0.50;;;8.30;99.90;;;8.70;100.00;-20919.06;5010966;28;20427;-69
2020/12/24 07:48:08;;;;;;;0.60;0.60;;;8.30;99.90;;;8.59;100.00;-20846.75;5011765;28;21052;-71
2020/12/24 07:50:35;;;;;;;0.70;0.60;;;8.20;99.90;;;8.64;100.00;-20803.03;5011520;28;20494;-71
2020/12/24 07:53:17;;;;;;;0.60;0.50;;;8.20;99.90;;;8.80;100.00;-20921.72;4996889;28;20437;-69
2020/12/24 07:55:45;;;;;;;0.60;0.50;;;8.30;99.90;;;8.67;100.00;-20918.25;5011295;28;20497;-71
2020/12/24 07:58:14;;;;;;;0.67;0.60;;;8.20;99.90;;;8.84;100.00;-20922.81;5002543;28;20894;-70
2020/12/24 08:00:44;;;;;;;0.60;0.50;;;8.30;99.90;;;8.84;100.00;-20922.81;5001770;28;20800;-71
2020/12/24 08:03:14;;;;;;;0.60;0.50;;;8.30;99.90;;;8.71;100.00;-20919.34;4999710;28;20576;-72
2020/12/24 08:05:41;;;;;;;0.60;0.50;;;8.30;99.90;;;8.77;100.00;-20920.75;5000470;28;20863;-71
2020/12/24 08:08:09;;;;;;;0.60;0.60;;;8.30;99.90;;;8.77;100.00;-20920.75;5007495;28;20507;-70
2020/12/24 08:10:41;;;;;;;0.60;0.50;;;8.30;99.90;;;8.63;100.00;-20917.13;5004401;28;20459;-70
2020/12/24 08:13:10;;;;;;;0.70;0.67;;;8.20;99.90;;;8.53;100.00;-20914.22;5002364;28;20496;-71
2020/12/24 08:15:40;;;;;;;0.60;0.60;;;8.20;99.90;;;8.72;100.00;-20919.50;5015224;28;20484;-71
2020/12/24 08:18:10;;;;;;;0.60;0.60;;;8.20;99.90;;;8.58;100.00;-20915.75;5009328;28;21022;-71
2020/12/24 08:20:48;;;;;;;0.60;0.60;;;8.20;99.90;;;8.57;100.00;-20915.47;5014629;28;20827;-71
2020/12/24 08:23:45;;;;;;;0.60;0.57;;;8.20;99.90;;;8.56;100.00;-20915.19;5008302;28;20976;-71
2020/12/24 08:26:14;;;;;;;0.70;0.63;;;8.20;99.90;;;8.77;100.00;-20913.88;5016245;28;20426;-71
2020/12/24 08:28:49;;;;;;;0.60;0.50;;;8.20;99.90;;;9.00;100.00;-20927.13;5009521;28;20506;-71
2020/12/24 08:31:17;;;;;;;0.60;0.60;;;8.20;99.90;;;8.89;100.00;-20924.06;5015699;28;20546;-71
2020/12/24 08:33:50;;;;;;;0.60;0.60;;;8.20;99.90;;;8.97;100.00;-20926.28;5012090;28;20506;-71
2020/12/24 08:36:19;;;;;;;0.60;0.60;;;8.20;99.90;;;8.69;100.00;-20918.66;5012036;28;20441;-72
2020/12/24 08:38:46;;;;;;;0.60;0.60;;;8.20;99.90;;;8.83;100.00;-20922.41;5009320;28;20786;-72
2020/12/24 08:41:22;;;;;;;0.60;0.60;;;8.20;99.90;;;8.89;100.00;-20832.28;5014816;28;20421;-72
2020/12/24 08:43:52;;;;;;;0.60;0.60;;;8.20;99.90;;;9.13;100.00;-20930.72;5014105;28;20503;-71
2020/12/24 08:46:20;;;;;;;0.60;0.60;;;8.30;99.90;;;9.28;100.00;-20934.72;5013745;28;20447;-71
2020/12/24 08:48:48;;;;;;;0.60;0.60;;;8.50;99.90;;;9.33;100.00;-20935.97;5008040;28;20873;-71
2020/12/24 08:51:16;;;;;;;0.60;0.60;;;8.50;99.90;;;9.45;100.00;-20939.31;4997159;28;20892;-72
2020/12/24 08:54:06;;;;;;;0.67;0.60;;;8.60;99.90;;;9.46;100.00;-20939.44;5007127;28;20770;-71
2020/12/24 08:56:36;;;;;;;0.60;0.60;;;8.60;99.90;;;9.63;100.00;-20944.28;5009451;28;20449;-71
2020/12/24 08:59:08;;;;;;;0.60;0.60;;;8.70;99.90;;;9.58;100.00;-20942.91;5007747;28;20977;-71
2020/12/24 09:01:40;;;;;;;0.67;0.60;;;8.70;99.90;;;9.52;100.00;-20941.25;5013707;28;20442;-71
2020/12/24 09:04:15;;;;;;;0.70;0.70;;;8.60;99.90;;;9.19;100.00;-20932.38;5009951;28;20834;-69
2020/12/24 09:06:43;;;;;;;0.63;0.60;;;8.60;99.90;;;9.03;100.00;-20927.94;5002539;28;20493;-72
2020/12/24 09:09:20;;;;;;;0.70;0.60;;;8.50;99.90;;;9.15;100.00;-20931.28;5014543;28;20446;-71
2020/12/24 09:11:48;;;;;;;0.60;0.50;;;8.50;99.90;;;9.25;100.00;-20933.75;5012082;28;20969;-71
2020/12/24 09:14:18;;;;;;;0.60;0.60;;;8.40;99.90;;;9.18;100.00;-20931.97;5014758;28;20951;-71
2020/12/24 09:16:56;;;;;;;0.60;0.50;;;8.40;99.90;;;8.99;100.00;-20926.69;5004916;28;21314;-71
2020/12/24 09:19:24;;;;;;;0.60;0.60;;;8.40;99.90;;;9.13;100.00;-20930.56;5006193;28;20521;-72
2020/12/24 09:21:55;;;;;;;0.60;0.60;;;8.40;99.90;;;9.07;100.00;-20929.06;5004612;28;20823;-72
2020/12/24 09:24:23;;;;;;;0.60;0.60;;;8.30;99.90;;;8.90;100.00;-20830.19;5014050;28;20518;-71
2020/12/24 09:26:52;;;;;;;0.60;0.50;;;8.20;99.90;;;8.77;100.00;-19640.22;5006710;28;20450;-71
2020/12/24 09:29:22;;;;;;;0.70;0.60;;;8.20;99.90;;;8.84;100.00;-17772.56;5010612;28;20993;-72
2020/12/24 09:31:55;;;;;;;0.60;0.50;;;8.10;99.90;;;8.87;100.00;-17230.72;5011856;28;20582;-71
2020/12/24 09:34:22;;;;;;;0.60;0.50;;;8.10;99.90;;;8.80;100.00;-16164.00;5007559;28;20860;-71
2020/12/24 09:36:49;;;;;;;0.60;0.57;;;8.00;99.90;;;8.62;100.00;-15762.97;5009266;28;20459;-71
2020/12/24 09:39:17;;;;;;;0.60;0.50;;;8.00;99.90;;;8.40;100.00;-15098.84;5013797;28;20879;-71
2020/12/24 09:41:45;;;;;;;0.60;0.60;;;7.80;99.90;;;8.16;100.00;-14049.84;5007602;28;20516;-70
2020/12/24 09:44:14;;;;;;;0.60;0.50;;;7.70;99.90;;;8.20;100.00;-13465.41;5001666;28;20463;-70
2020/12/24 09:46:41;;;;;;;0.60;0.50;;;7.60;99.90;;;8.10;100.00;-13341.34;5010425;28;20494;-69
2020/12/24 09:49:08;;;;;;;0.60;0.50;;;7.40;99.90;;;7.87;100.00;-13875.22;5002483;28;20458;-70
2020/12/24 09:51:36;;;;;;;0.60;0.50;;;7.30;99.90;;;7.86;100.00;-13982.50;5006416;28;20472;-71
2020/12/24 09:54:03;;;;;;;0.60;0.60;;;7.20;99.90;;;7.88;100.00;-14215.13;5015533;28;20420;-71
2020/12/24 09:56:31;;;;;;;0.70;0.60;;;7.10;99.90;;;7.74;100.00;-14537.69;5015079;28;20437;-70
2020/12/24 09:58:58;;;;;;;0.60;0.57;;;7.10;99.90;;;7.61;100.00;-14830.03;5015701;28;20438;-70
2020/12/24 10:01:26;;;;;;;0.60;0.60;;;7.00;99.90;;;7.39;100.00;-15644.94;5015389;28;20875;-71
2020/12/24 10:03:53;;;;;;;0.60;0.60;;;6.90;99.90;;;7.23;100.00;-16395.38;5015529;28;20592;-70
2020/12/24 10:06:20;;;;;;;0.60;0.50;;;6.70;99.90;;;6.95;100.00;-16943.13;5014354;28;20482;-69
2020/12/24 10:08:47;;;;;;;0.60;0.60;;;6.70;99.90;;;7.14;100.00;-16682.72;5015460;28;20492;-69
2020/12/24 10:11:15;;;;;;;0.60;0.50;;;6.70;99.90;;;7.05;100.00;-17069.81;5014471;28;20494;-72
2020/12/24 10:13:42;;;;;;;0.60;0.50;;;6.70;99.90;;;6.90;100.00;-17373.25;5015512;28;20951;-71
2020/12/24 10:16:10;;;;;;;0.60;0.60;;;6.60;99.90;;;6.84;100.00;-17735.75;5004256;28;20425;-71
2020/12/24 10:18:38;;;;;;;0.67;0.60;;;6.60;99.90;;;6.97;100.00;-17624.16;4994452;28;20478;-71
2020/12/24 10:21:10;;;;;;;0.60;0.60;;;6.60;99.90;;;7.10;100.00;-17928.59;4995581;28;20417;-71
2020/12/24 10:23:37;;;;;;;0.60;0.60;;;6.60;99.90;;;6.87;100.00;-18379.28;5013128;28;20533;-71
2020/12/24 10:26:04;;;;;;;1.33;1.23;;;6.60;99.90;;;6.91;100.00;-18801.38;5014916;28;20898;-71
2020/12/24 10:28:31;;;;;;;0.60;0.50;;;6.50;99.90;;;6.85;100.00;-19073.94;5015057;28;20445;-71
2020/12/24 10:30:57;;;;;;;0.60;0.60;;;6.50;99.90;;;6.68;100.00;-19507.94;5014913;28;20923;-71